Minerva, OH (44657)

10:33 AM EST on March 05, 2015 (GMT -0500)
OHDOT 108-SR183 @ Minerva | Change Station
CLOSE
Current Station
Personal Weather Station
Location: Minerva, OH
Elevation: 1042 ft
Nearby Weather Stations

Elev 1042 ft 40.73 °N, 81.10 °W | Updated 30 minutes ago

Overcast
Overcast
15.0 °F
Feels Like 15.0 °F
N
2.0
Wind Variable Wind from NNE
Gusts 9.0 mph

Today
High -- | Low -- °F
--% Chance of Precip.
Yesterday
High -- | Low -- °F
Precip. -- in
6:52 AM 6:19 PM
Full, 100% visible
Pressure 30.30 in
Visibility 10.0 miles
Clouds Scattered Clouds 2900 ft
Mostly Cloudy 11000 ft
Overcast 20000 ft
Dew Point 4.0 °F
Humidity 60%
Rainfall in
Snow Depth Not available.
UV 1 out of 12
Pollen .50 out of 12
Air Quality Not available.
Flu Activity Not available.
SPECI KCAK 051508Z 03007KT 10SM SCT029 BKN110 OVC200 M10/M17 A3030 RMK AO2 T11001167 $

More Conditions Fewer Conditions

Pressure 30.30 in
Visibility 10.0 miles
Clouds Scattered Clouds 2900 ft
Mostly Cloudy 11000 ft
Overcast 20000 ft
Dew Point 4.0 °F
Humidity 60%
Rainfall in
Snow Depth Not available.
UV 1 out of 12
Pollen .50 out of 12
Air Quality Not available.
Flu Activity Not available.
SPECI KCAK 051508Z 03007KT 10SM SCT029 BKN110 OVC200 M10/M17 A3030 RMK AO2 T11001167 $

More Conditions Fewer Conditions

10-Day Weather Forecast

Almanac

Astronomy

Mar. 05, 2015 Rise Set
Actual Time
Civil Twilight
Nautical Twilight
Astronomical Twilight
Moon
Length of Visible Light
Length of Day
Tomorrow will be .
, % of the Moon is Illuminated

Today's Extremes

State Highs State Lows

Community

WunderPhotos

Upload Photos

1,802,816 photos uploaded!

WunderBlogs® & News

Nearby

Air Quality

  Air Quality AQ Index Pollutant
Not available.

Snow Depth

Station Depth Elevation

Earthquake Activity

City Distance Mag. Time & Date
Minimum magnitude displayed is 2.5.

Coastal Water Temperatures

Place Temperature

Nearby Weather Stations